sensor_id;sensor_type;location;lat;lon;timestamp;temperature;humidity
48768;DHT22;34933;40.968;14.538;2022-10-16T00:00:51;14.30;99.90
48768;DHT22;34933;40.968;14.538;2022-10-16T00:03:37;14.30;99.90
48768;DHT22;34933;40.968;14.538;2022-10-16T00:06:23;14.30;99.90
48768;DHT22;34933;40.968;14.538;2022-10-16T00:09:08;14.30;99.90
48768;DHT22;34933;40.968;14.538;2022-10-16T00:11:52;14.20;99.90
48768;DHT22;34933;40.968;14.538;2022-10-16T00:14:37;14.20;99.90
48768;DHT22;34933;40.968;14.538;2022-10-16T00:17:22;14.20;99.90
48768;DHT22;34933;40.968;14.538;2022-10-16T00:20:07;14.10;99.90
48768;DHT22;34933;40.968;14.538;2022-10-16T00:22:52;14.10;99.90
48768;DHT22;34933;40.968;14.538;2022-10-16T00:25:36;14.10;99.90
48768;DHT22;34933;40.968;14.538;2022-10-16T00:28:21;14.10;99.90
48768;DHT22;34933;40.968;14.538;2022-10-16T00:31:10;14.10;99.90
48768;DHT22;34933;40.968;14.538;2022-10-16T00:33:55;14.10;99.90
48768;DHT22;34933;40.968;14.538;2022-10-16T00:36:40;14.00;99.90
48768;DHT22;34933;40.968;14.538;2022-10-16T00:39:24;14.00;99.90
48768;DHT22;34933;40.968;14.538;2022-10-16T00:42:15;14.00;99.90
48768;DHT22;34933;40.968;14.538;2022-10-16T00:45:00;13.90;99.90
48768;DHT22;34933;40.968;14.538;2022-10-16T00:47:45;13.90;99.90
48768;DHT22;34933;40.968;14.538;2022-10-16T00:50:34;13.80;99.90
48768;DHT22;34933;40.968;14.538;2022-10-16T00:53:19;13.80;99.90
48768;DHT22;34933;40.968;14.538;2022-10-16T00:56:04;13.80;99.90
48768;DHT22;34933;40.968;14.538;2022-10-16T00:58:48;13.80;99.90
48768;DHT22;34933;40.968;14.538;2022-10-16T01:01:33;13.70;99.90
48768;DHT22;34933;40.968;14.538;2022-10-16T01:04:18;13.70;99.90
48768;DHT22;34933;40.968;14.538;2022-10-16T01:07:30;13.70;99.90
48768;DHT22;34933;40.968;14.538;2022-10-16T01:13:24;13.80;99.90
48768;DHT22;34933;40.968;14.538;2022-10-16T01:16:16;13.70;99.90
48768;DHT22;34933;40.968;14.538;2022-10-16T01:22:09;13.80;99.90
48768;DHT22;34933;40.968;14.538;2022-10-16T01:24:55;13.80;99.90
48768;DHT22;34933;40.968;14.538;2022-10-16T01:27:44;13.80;99.90
48768;DHT22;34933;40.968;14.538;2022-10-16T01:30:32;13.80;99.90
48768;DHT22;34933;40.968;14.538;2022-10-16T01:33:21;13.80;99.90
48768;DHT22;34933;40.968;14.538;2022-10-16T01:36:13;13.80;99.90
48768;DHT22;34933;40.968;14.538;2022-10-16T01:39:01;13.80;99.90
48768;DHT22;34933;40.968;14.538;2022-10-16T01:41:50;13.90;99.90
48768;DHT22;34933;40.968;14.538;2022-10-16T01:44:37;13.90;99.90
48768;DHT22;34933;40.968;14.538;2022-10-16T01:47:23;13.90;99.90
48768;DHT22;34933;40.968;14.538;2022-10-16T01:50:09;13.90;99.90
48768;DHT22;34933;40.968;14.538;2022-10-16T01:52:57;13.90;99.90
48768;DHT22;34933;40.968;14.538;2022-10-16T01:55:45;13.90;99.90
48768;DHT22;34933;40.968;14.538;2022-10-16T01:58:34;13.80;99.90
48768;DHT22;34933;40.968;14.538;2022-10-16T02:01:20;13.80;99.90
48768;DHT22;34933;40.968;14.538;2022-10-16T02:04:15;13.80;99.90
48768;DHT22;34933;40.968;14.538;2022-10-16T02:07:01;13.80;99.90
48768;DHT22;34933;40.968;14.538;2022-10-16T02:09:46;13.70;99.90
48768;DHT22;34933;40.968;14.538;2022-10-16T02:12:36;13.60;99.90
48768;DHT22;34933;40.968;14.538;2022-10-16T02:15:23;13.50;99.90
48768;DHT22;34933;40.968;14.538;2022-10-16T02:18:09;13.50;99.90
48768;DHT22;34933;40.968;14.538;2022-10-16T02:29:27;13.40;99.90
48768;DHT22;34933;40.968;14.538;2022-10-16T02:32:15;13.30;99.90
48768;DHT22;34933;40.968;14.538;2022-10-16T02:35:00;13.30;99.90
48768;DHT22;34933;40.968;14.538;2022-10-16T02:37:47;13.20;99.90
48768;DHT22;34933;40.968;14.538;2022-10-16T02:40:33;13.20;99.90
48768;DHT22;34933;40.968;14.538;2022-10-16T02:43:18;13.20;99.90
48768;DHT22;34933;40.968;14.538;2022-10-16T02:46:03;13.20;99.90
48768;DHT22;34933;40.968;14.538;2022-10-16T02:48:48;13.20;99.90
48768;DHT22;34933;40.968;14.538;2022-10-16T02:51:32;13.10;99.90
48768;DHT22;34933;40.968;14.538;2022-10-16T02:54:17;13.10;99.90
48768;DHT22;34933;40.968;14.538;2022-10-16T02:57:02;13.20;99.90
48768;DHT22;34933;40.968;14.538;2022-10-16T02:59:46;13.20;99.90
48768;DHT22;34933;40.968;14.538;2022-10-16T03:02:31;13.20;99.90
48768;DHT22;34933;40.968;14.538;2022-10-16T03:05:15;13.10;99.90
48768;DHT22;34933;40.968;14.538;2022-10-16T03:08:00;13.00;99.90
48768;DHT22;34933;40.968;14.538;2022-10-16T03:10:44;13.00;99.90
48768;DHT22;34933;40.968;14.538;2022-10-16T03:13:29;13.00;99.90
48768;DHT22;34933;40.968;14.538;2022-10-16T03:16:13;13.00;99.90
48768;DHT22;34933;40.968;14.538;2022-10-16T03:18:58;13.00;99.90
48768;DHT22;34933;40.968;14.538;2022-10-16T03:21:43;13.10;99.90
48768;DHT22;34933;40.968;14.538;2022-10-16T03:24:27;13.00;99.90
48768;DHT22;34933;40.968;14.538;2022-10-16T03:27:12;13.00;99.90
48768;DHT22;34933;40.968;14.538;2022-10-16T03:29:56;12.90;99.90
48768;DHT22;34933;40.968;14.538;2022-10-16T03:32:41;13.00;99.90
48768;DHT22;34933;40.968;14.538;2022-10-16T03:35:25;12.90;99.90
48768;DHT22;34933;40.968;14.538;2022-10-16T03:38:10;12.90;99.90
48768;DHT22;34933;40.968;14.538;2022-10-16T03:40:54;12.80;99.90
48768;DHT22;34933;40.968;14.538;2022-10-16T03:43:39;12.70;99.90
48768;DHT22;34933;40.968;14.538;2022-10-16T03:46:24;12.70;99.90
48768;DHT22;34933;40.968;14.538;2022-10-16T03:49:08;12.70;99.90
48768;DHT22;34933;40.968;14.538;2022-10-16T03:51:53;12.70;99.90
48768;DHT22;34933;40.968;14.538;2022-10-16T03:54:37;12.70;99.90
48768;DHT22;34933;40.968;14.538;2022-10-16T03:57:22;12.70;99.90
48768;DHT22;34933;40.968;14.538;2022-10-16T04:00:07;12.70;99.90
48768;DHT22;34933;40.968;14.538;2022-10-16T04:02:56;12.80;99.90
48768;DHT22;34933;40.968;14.538;2022-10-16T04:05:41;12.80;99.90
48768;DHT22;34933;40.968;14.538;2022-10-16T04:08:25;12.70;99.90
48768;DHT22;34933;40.968;14.538;2022-10-16T04:11:10;12.70;99.90
48768;DHT22;34933;40.968;14.538;2022-10-16T04:13:54;12.70;99.90
48768;DHT22;34933;40.968;14.538;2022-10-16T04:16:39;12.70;99.90
48768;DHT22;34933;40.968;14.538;2022-10-16T04:19:23;12.60;99.90
48768;DHT22;34933;40.968;14.538;2022-10-16T04:22:08;12.60;99.90
48768;DHT22;34933;40.968;14.538;2022-10-16T04:24:53;12.50;99.90
48768;DHT22;34933;40.968;14.538;2022-10-16T04:27:38;12.40;99.90
48768;DHT22;34933;40.968;14.538;2022-10-16T04:30:23;12.40;99.90
48768;DHT22;34933;40.968;14.538;2022-10-16T04:33:09;12.40;99.90
48768;DHT22;34933;40.968;14.538;2022-10-16T04:35:58;12.40;99.90
48768;DHT22;34933;40.968;14.538;2022-10-16T04:38:42;12.40;99.90
48768;DHT22;34933;40.968;14.538;2022-10-16T04:41:27;12.40;99.90
48768;DHT22;34933;40.968;14.538;2022-10-16T04:44:11;12.40;99.90
48768;DHT22;34933;40.968;14.538;2022-10-16T04:46:56;12.30;99.90
48768;DHT22;34933;40.968;14.538;2022-10-16T04:49:40;12.40;99.90
48768;DHT22;34933;40.968;14.538;2022-10-16T04:52:25;12.40;99.90
48768;DHT22;34933;40.968;14.538;2022-10-16T04:55:10;12.30;99.90
48768;DHT22;34933;40.968;14.538;2022-10-16T04:57:55;12.40;99.90
48768;DHT22;34933;40.968;14.538;2022-10-16T05:00:39;12.40;99.90
48768;DHT22;34933;40.968;14.538;2022-10-16T05:03:24;12.30;99.90
48768;DHT22;34933;40.968;14.538;2022-10-16T05:06:08;12.30;99.90
48768;DHT22;34933;40.968;14.538;2022-10-16T05:08:53;12.40;99.90
48768;DHT22;34933;40.968;14.538;2022-10-16T05:11:38;12.50;99.90
48768;DHT22;34933;40.968;14.538;2022-10-16T05:14:22;12.60;99.90
48768;DHT22;34933;40.968;14.538;2022-10-16T05:17:07;12.70;99.90
48768;DHT22;34933;40.968;14.538;2022-10-16T05:19:51;12.70;99.90
48768;DHT22;34933;40.968;14.538;2022-10-16T05:22:36;12.70;99.90
48768;DHT22;34933;40.968;14.538;2022-10-16T05:25:20;12.70;99.90
48768;DHT22;34933;40.968;14.538;2022-10-16T05:28:05;12.70;99.90
48768;DHT22;34933;40.968;14.538;2022-10-16T05:30:50;12.80;99.90
48768;DHT22;34933;40.968;14.538;2022-10-16T05:33:35;12.80;99.90
48768;DHT22;34933;40.968;14.538;2022-10-16T05:36:19;12.60;99.90
48768;DHT22;34933;40.968;14.538;2022-10-16T05:39:04;12.60;99.90
48768;DHT22;34933;40.968;14.538;2022-10-16T05:41:49;12.60;99.90
48768;DHT22;34933;40.968;14.538;2022-10-16T05:44:34;12.50;99.90
48768;DHT22;34933;40.968;14.538;2022-10-16T05:47:19;12.50;99.90
48768;DHT22;34933;40.968;14.538;2022-10-16T05:50:05;12.40;99.90
48768;DHT22;34933;40.968;14.538;2022-10-16T05:52:49;12.50;99.90
48768;DHT22;34933;40.968;14.538;2022-10-16T05:55:34;12.60;99.90
48768;DHT22;34933;40.968;14.538;2022-10-16T05:58:19;12.70;99.90
48768;DHT22;34933;40.968;14.538;2022-10-16T06:01:09;12.80;99.90
48768;DHT22;34933;40.968;14.538;2022-10-16T06:03:55;12.80;99.90
48768;DHT22;34933;40.968;14.538;2022-10-16T06:06:40;12.90;99.90
48768;DHT22;34933;40.968;14.538;2022-10-16T06:09:24;13.10;99.90
48768;DHT22;34933;40.968;14.538;2022-10-16T06:12:09;13.40;99.90
48768;DHT22;34933;40.968;14.538;2022-10-16T06:14:53;13.60;99.90
48768;DHT22;34933;40.968;14.538;2022-10-16T06:17:38;13.70;99.90
48768;DHT22;34933;40.968;14.538;2022-10-16T06:20:22;13.90;99.90
48768;DHT22;34933;40.968;14.538;2022-10-16T06:23:07;14.00;99.90
48768;DHT22;34933;40.968;14.538;2022-10-16T06:25:52;14.10;99.90
48768;DHT22;34933;40.968;14.538;2022-10-16T06:28:37;14.30;99.90
48768;DHT22;34933;40.968;14.538;2022-10-16T06:31:22;14.70;99.90
48768;DHT22;34933;40.968;14.538;2022-10-16T06:34:09;14.90;99.90
48768;DHT22;34933;40.968;14.538;2022-10-16T06:36:54;15.00;99.90
48768;DHT22;34933;40.968;14.538;2022-10-16T06:39:39;15.20;99.90
48768;DHT22;34933;40.968;14.538;2022-10-16T06:42:24;15.30;99.90
48768;DHT22;34933;40.968;14.538;2022-10-16T06:45:09;15.40;99.90
48768;DHT22;34933;40.968;14.538;2022-10-16T06:47:54;15.50;99.90
48768;DHT22;34933;40.968;14.538;2022-10-16T06:50:39;15.60;99.90
48768;DHT22;34933;40.968;14.538;2022-10-16T06:53:24;15.80;99.90
48768;DHT22;34933;40.968;14.538;2022-10-16T06:56:20;16.00;99.90
48768;DHT22;34933;40.968;14.538;2022-10-16T06:59:05;16.10;99.90
48768;DHT22;34933;40.968;14.538;2022-10-16T07:01:50;16.20;99.90
48768;DHT22;34933;40.968;14.538;2022-10-16T07:04:35;16.30;99.90
48768;DHT22;34933;40.968;14.538;2022-10-16T07:07:20;16.50;99.90
48768;DHT22;34933;40.968;14.538;2022-10-16T07:10:05;16.60;99.90
48768;DHT22;34933;40.968;14.538;2022-10-16T07:12:50;16.70;99.90
48768;DHT22;34933;40.968;14.538;2022-10-16T07:15:34;16.90;99.90
48768;DHT22;34933;40.968;14.538;2022-10-16T07:18:19;17.00;99.90
48768;DHT22;34933;40.968;14.538;2022-10-16T07:21:08;17.10;99.90
48768;DHT22;34933;40.968;14.538;2022-10-16T07:23:54;17.20;99.90
48768;DHT22;34933;40.968;14.538;2022-10-16T07:26:39;17.40;99.90
48768;DHT22;34933;40.968;14.538;2022-10-16T07:29:24;17.50;99.90
48768;DHT22;34933;40.968;14.538;2022-10-16T07:32:09;17.60;99.90
48768;DHT22;34933;40.968;14.538;2022-10-16T07:34:53;17.70;99.90
48768;DHT22;34933;40.968;14.538;2022-10-16T07:37:44;17.80;99.90
48768;DHT22;34933;40.968;14.538;2022-10-16T07:40:28;17.90;99.90
48768;DHT22;34933;40.968;14.538;2022-10-16T07:43:14;18.00;99.90
48768;DHT22;34933;40.968;14.538;2022-10-16T07:45:58;18.10;99.90
48768;DHT22;34933;40.968;14.538;2022-10-16T07:48:43;18.20;99.90
48768;DHT22;34933;40.968;14.538;2022-10-16T07:51:31;18.40;99.90
48768;DHT22;34933;40.968;14.538;2022-10-16T07:54:15;18.50;99.90
48768;DHT22;34933;40.968;14.538;2022-10-16T07:57:00;18.70;99.90
48768;DHT22;34933;40.968;14.538;2022-10-16T07:59:45;18.90;99.90
48768;DHT22;34933;40.968;14.538;2022-10-16T08:02:31;19.00;99.90
48768;DHT22;34933;40.968;14.538;2022-10-16T08:05:16;19.20;99.90
48768;DHT22;34933;40.968;14.538;2022-10-16T08:08:01;19.40;99.90
48768;DHT22;34933;40.968;14.538;2022-10-16T08:10:46;19.50;99.90
48768;DHT22;34933;40.968;14.538;2022-10-16T08:13:31;19.60;99.90
48768;DHT22;34933;40.968;14.538;2022-10-16T08:16:16;19.70;99.90
48768;DHT22;34933;40.968;14.538;2022-10-16T08:19:01;19.80;99.90
48768;DHT22;34933;40.968;14.538;2022-10-16T08:21:48;20.00;99.90
48768;DHT22;34933;40.968;14.538;2022-10-16T08:24:33;20.20;99.90
48768;DHT22;34933;40.968;14.538;2022-10-16T08:27:18;20.30;99.90
48768;DHT22;34933;40.968;14.538;2022-10-16T08:30:03;20.40;99.90
48768;DHT22;34933;40.968;14.538;2022-10-16T08:32:48;20.40;99.90
48768;DHT22;34933;40.968;14.538;2022-10-16T08:35:33;20.40;99.90
48768;DHT22;34933;40.968;14.538;2022-10-16T08:38:18;20.60;99.90
48768;DHT22;34933;40.968;14.538;2022-10-16T08:47:53;20.80;99.90
48768;DHT22;34933;40.968;14.538;2022-10-16T08:50:40;20.80;99.90
48768;DHT22;34933;40.968;14.538;2022-10-16T08:53:49;20.90;99.90
48768;DHT22;34933;40.968;14.538;2022-10-16T08:56:33;21.00;99.90
48768;DHT22;34933;40.968;14.538;2022-10-16T08:59:18;21.00;99.90
48768;DHT22;34933;40.968;14.538;2022-10-16T09:08:09;21.40;99.90
48768;DHT22;34933;40.968;14.538;2022-10-16T09:17:32;21.70;99.90
48768;DHT22;34933;40.968;14.538;2022-10-16T09:20:26;21.90;99.90
48768;DHT22;34933;40.968;14.538;2022-10-16T09:25:59;21.80;99.90
48768;DHT22;34933;40.968;14.538;2022-10-16T09:28:44;21.90;99.90
48768;DHT22;34933;40.968;14.538;2022-10-16T09:31:28;22.00;99.90
48768;DHT22;34933;40.968;14.538;2022-10-16T09:34:35;22.00;99.90
48768;DHT22;34933;40.968;14.538;2022-10-16T09:37:22;22.10;99.90
48768;DHT22;34933;40.968;14.538;2022-10-16T09:40:13;22.10;99.90
48768;DHT22;34933;40.968;14.538;2022-10-16T09:46:19;22.30;99.90
48768;DHT22;34933;40.968;14.538;2022-10-16T09:52:14;22.60;99.90
48768;DHT22;34933;40.968;14.538;2022-10-16T09:55:09;22.70;99.90
48768;DHT22;34933;40.968;14.538;2022-10-16T09:57:56;22.80;99.90
48768;DHT22;34933;40.968;14.538;2022-10-16T10:00:42;22.80;99.90
48768;DHT22;34933;40.968;14.538;2022-10-16T10:03:40;22.90;99.90
48768;DHT22;34933;40.968;14.538;2022-10-16T10:06:28;22.90;99.90
48768;DHT22;34933;40.968;14.538;2022-10-16T10:09:25;22.90;99.90
48768;DHT22;34933;40.968;14.538;2022-10-16T10:12:27;23.00;99.90
48768;DHT22;34933;40.968;14.538;2022-10-16T10:15:13;23.00;99.90
48768;DHT22;34933;40.968;14.538;2022-10-16T10:18:16;23.00;99.90
48768;DHT22;34933;40.968;14.538;2022-10-16T10:21:03;23.00;99.90
48768;DHT22;34933;40.968;14.538;2022-10-16T10:23:55;23.10;99.90
48768;DHT22;34933;40.968;14.538;2022-10-16T10:26:52;23.30;99.90
48768;DHT22;34933;40.968;14.538;2022-10-16T10:30:03;23.40;99.90
48768;DHT22;34933;40.968;14.538;2022-10-16T10:36:39;23.50;99.90
48768;DHT22;34933;40.968;14.538;2022-10-16T10:39:49;23.60;99.90
48768;DHT22;34933;40.968;14.538;2022-10-16T10:42:47;23.70;99.90
48768;DHT22;34933;40.968;14.538;2022-10-16T10:45:43;23.80;99.90
48768;DHT22;34933;40.968;14.538;2022-10-16T10:57:21;24.10;99.90
48768;DHT22;34933;40.968;14.538;2022-10-16T11:00:16;24.10;99.90
48768;DHT22;34933;40.968;14.538;2022-10-16T11:05:59;24.30;99.90
48768;DHT22;34933;40.968;14.538;2022-10-16T11:09:00;24.30;99.90
48768;DHT22;34933;40.968;14.538;2022-10-16T11:12:00;24.30;99.90
48768;DHT22;34933;40.968;14.538;2022-10-16T11:14:49;24.50;99.90
48768;DHT22;34933;40.968;14.538;2022-10-16T11:20:57;24.90;99.90
48768;DHT22;34933;40.968;14.538;2022-10-16T11:24:09;24.90;99.90
48768;DHT22;34933;40.968;14.538;2022-10-16T11:26:59;25.00;99.90
48768;DHT22;34933;40.968;14.538;2022-10-16T11:29:57;25.00;99.90
48768;DHT22;34933;40.968;14.538;2022-10-16T11:36:09;25.10;99.90
48768;DHT22;34933;40.968;14.538;2022-10-16T11:41:50;25.40;99.90
48768;DHT22;34933;40.968;14.538;2022-10-16T11:47:47;25.30;99.90
48768;DHT22;34933;40.968;14.538;2022-10-16T11:50:56;25.50;99.90
48768;DHT22;34933;40.968;14.538;2022-10-16T11:53:59;25.50;99.90
48768;DHT22;34933;40.968;14.538;2022-10-16T11:56:46;25.60;99.90
48768;DHT22;34933;40.968;14.538;2022-10-16T12:08:29;25.80;99.90
48768;DHT22;34933;40.968;14.538;2022-10-16T12:14:37;26.10;99.90
48768;DHT22;34933;40.968;14.538;2022-10-16T12:17:36;26.20;99.90
48768;DHT22;34933;40.968;14.538;2022-10-16T12:23:07;26.10;99.90
48768;DHT22;34933;40.968;14.538;2022-10-16T12:26:04;26.30;99.90
48768;DHT22;34933;40.968;14.538;2022-10-16T12:28:49;26.60;99.90
48768;DHT22;34933;40.968;14.538;2022-10-16T12:31:47;26.70;99.90
48768;DHT22;34933;40.968;14.538;2022-10-16T12:37:36;27.40;99.90
48768;DHT22;34933;40.968;14.538;2022-10-16T12:43:27;27.30;99.90
48768;DHT22;34933;40.968;14.538;2022-10-16T12:51:57;27.90;99.90
48768;DHT22;34933;40.968;14.538;2022-10-16T12:54:42;28.10;99.90
48768;DHT22;34933;40.968;14.538;2022-10-16T13:00:46;28.50;99.90
48768;DHT22;34933;40.968;14.538;2022-10-16T13:04:14;28.50;99.90
48768;DHT22;34933;40.968;14.538;2022-10-16T13:07:28;28.30;99.90
48768;DHT22;34933;40.968;14.538;2022-10-16T13:23:04;29.50;98.50
48768;DHT22;34933;40.968;14.538;2022-10-16T13:26:20;29.60;98.30
48768;DHT22;34933;40.968;14.538;2022-10-16T13:29:07;29.60;98.10
48768;DHT22;34933;40.968;14.538;2022-10-16T13:31:52;29.70;98.20
48768;DHT22;34933;40.968;14.538;2022-10-16T13:34:44;29.80;98.10
48768;DHT22;34933;40.968;14.538;2022-10-16T13:37:29;29.90;97.90
48768;DHT22;34933;40.968;14.538;2022-10-16T13:40:21;30.00;98.10
48768;DHT22;34933;40.968;14.538;2022-10-16T13:43:08;30.40;97.40
48768;DHT22;34933;40.968;14.538;2022-10-16T13:46:01;30.10;97.10
48768;DHT22;34933;40.968;14.538;2022-10-16T13:49:03;29.90;97.60
48768;DHT22;34933;40.968;14.538;2022-10-16T13:51:55;30.10;97.50
48768;DHT22;34933;40.968;14.538;2022-10-16T13:54:40;30.00;97.40
48768;DHT22;34933;40.968;14.538;2022-10-16T13:57:25;30.10;97.40
48768;DHT22;34933;40.968;14.538;2022-10-16T14:03:06;30.00;97.30
48768;DHT22;34933;40.968;14.538;2022-10-16T14:05:52;29.70;97.70
48768;DHT22;34933;40.968;14.538;2022-10-16T14:08:43;29.70;97.60
48768;DHT22;34933;40.968;14.538;2022-10-16T14:11:29;30.00;97.20
48768;DHT22;34933;40.968;14.538;2022-10-16T14:14:14;30.10;96.90
48768;DHT22;34933;40.968;14.538;2022-10-16T14:16:59;29.70;97.50
48768;DHT22;34933;40.968;14.538;2022-10-16T14:19:47;29.50;98.00
48768;DHT22;34933;40.968;14.538;2022-10-16T14:22:35;29.90;97.10
48768;DHT22;34933;40.968;14.538;2022-10-16T14:25:26;30.50;97.10
48768;DHT22;34933;40.968;14.538;2022-10-16T14:28:21;30.40;97.20
48768;DHT22;34933;40.968;14.538;2022-10-16T14:34:33;29.70;97.10
48768;DHT22;34933;40.968;14.538;2022-10-16T14:37:27;29.80;97.30
48768;DHT22;34933;40.968;14.538;2022-10-16T14:40:14;29.80;97.00
48768;DHT22;34933;40.968;14.538;2022-10-16T14:43:01;29.20;97.00
48768;DHT22;34933;40.968;14.538;2022-10-16T14:45:54;29.50;97.60
48768;DHT22;34933;40.968;14.538;2022-10-16T14:48:45;29.60;97.90
48768;DHT22;34933;40.968;14.538;2022-10-16T14:51:32;29.80;98.20
48768;DHT22;34933;40.968;14.538;2022-10-16T14:54:17;30.00;97.40
48768;DHT22;34933;40.968;14.538;2022-10-16T14:57:02;30.00;98.10
48768;DHT22;34933;40.968;14.538;2022-10-16T14:59:47;29.60;99.10
48768;DHT22;34933;40.968;14.538;2022-10-16T15:02:34;29.70;99.00
48768;DHT22;34933;40.968;14.538;2022-10-16T15:05:23;29.60;98.90
48768;DHT22;34933;40.968;14.538;2022-10-16T15:08:09;29.40;99.30
48768;DHT22;34933;40.968;14.538;2022-10-16T15:10:54;29.10;99.90
48768;DHT22;34933;40.968;14.538;2022-10-16T15:13:39;28.90;99.90
48768;DHT22;34933;40.968;14.538;2022-10-16T15:16:23;28.80;99.90
48768;DHT22;34933;40.968;14.538;2022-10-16T15:19:08;28.70;99.90
48768;DHT22;34933;40.968;14.538;2022-10-16T15:21:52;28.30;99.90
48768;DHT22;34933;40.968;14.538;2022-10-16T15:24:37;27.70;99.90
48768;DHT22;34933;40.968;14.538;2022-10-16T15:27:21;27.40;99.90
48768;DHT22;34933;40.968;14.538;2022-10-16T15:30:06;27.10;99.90
48768;DHT22;34933;40.968;14.538;2022-10-16T15:32:51;26.70;99.90
48768;DHT22;34933;40.968;14.538;2022-10-16T15:35:35;26.10;99.90
48768;DHT22;34933;40.968;14.538;2022-10-16T15:38:21;25.70;99.90
48768;DHT22;34933;40.968;14.538;2022-10-16T15:41:05;25.10;99.90
48768;DHT22;34933;40.968;14.538;2022-10-16T15:43:51;24.70;99.90
48768;DHT22;34933;40.968;14.538;2022-10-16T15:46:36;24.50;99.90
48768;DHT22;34933;40.968;14.538;2022-10-16T15:49:21;24.20;99.90
48768;DHT22;34933;40.968;14.538;2022-10-16T15:52:05;24.00;99.90
48768;DHT22;34933;40.968;14.538;2022-10-16T15:54:50;23.90;99.90
48768;DHT22;34933;40.968;14.538;2022-10-16T15:57:35;23.80;99.90
48768;DHT22;34933;40.968;14.538;2022-10-16T16:00:23;23.60;99.90
48768;DHT22;34933;40.968;14.538;2022-10-16T16:03:10;23.40;99.90
48768;DHT22;34933;40.968;14.538;2022-10-16T16:05:54;23.30;99.90
48768;DHT22;34933;40.968;14.538;2022-10-16T16:08:39;23.00;99.90
48768;DHT22;34933;40.968;14.538;2022-10-16T16:11:25;22.80;99.90
48768;DHT22;34933;40.968;14.538;2022-10-16T16:14:12;22.60;99.90
48768;DHT22;34933;40.968;14.538;2022-10-16T16:16:57;22.40;99.90
48768;DHT22;34933;40.968;14.538;2022-10-16T16:19:42;22.20;99.90
48768;DHT22;34933;40.968;14.538;2022-10-16T16:22:27;22.00;99.90
48768;DHT22;34933;40.968;14.538;2022-10-16T16:25:11;21.90;99.90
48768;DHT22;34933;40.968;14.538;2022-10-16T16:27:56;21.70;99.90
48768;DHT22;34933;40.968;14.538;2022-10-16T16:30:41;21.50;99.90
48768;DHT22;34933;40.968;14.538;2022-10-16T16:33:26;21.30;99.90
48768;DHT22;34933;40.968;14.538;2022-10-16T16:36:10;21.10;99.90
48768;DHT22;34933;40.968;14.538;2022-10-16T16:38:55;20.90;99.90
48768;DHT22;34933;40.968;14.538;2022-10-16T16:41:40;20.80;99.90
48768;DHT22;34933;40.968;14.538;2022-10-16T16:44:25;20.60;99.90
48768;DHT22;34933;40.968;14.538;2022-10-16T16:47:10;20.50;99.90
48768;DHT22;34933;40.968;14.538;2022-10-16T16:49:55;20.40;99.90
48768;DHT22;34933;40.968;14.538;2022-10-16T16:52:39;20.30;99.90
48768;DHT22;34933;40.968;14.538;2022-10-16T16:55:24;20.20;99.90
48768;DHT22;34933;40.968;14.538;2022-10-16T16:58:09;20.10;99.90
48768;DHT22;34933;40.968;14.538;2022-10-16T17:00:53;20.00;99.90
48768;DHT22;34933;40.968;14.538;2022-10-16T17:03:41;19.90;99.90
48768;DHT22;34933;40.968;14.538;2022-10-16T17:06:27;19.90;99.90
48768;DHT22;34933;40.968;14.538;2022-10-16T17:09:16;19.70;99.90
48768;DHT22;34933;40.968;14.538;2022-10-16T17:12:01;19.70;99.90
48768;DHT22;34933;40.968;14.538;2022-10-16T17:14:45;19.60;99.90
48768;DHT22;34933;40.968;14.538;2022-10-16T17:17:30;19.50;99.90
48768;DHT22;34933;40.968;14.538;2022-10-16T17:20:15;19.50;99.90
48768;DHT22;34933;40.968;14.538;2022-10-16T17:22:59;19.40;99.90
48768;DHT22;34933;40.968;14.538;2022-10-16T17:25:45;19.40;99.90
48768;DHT22;34933;40.968;14.538;2022-10-16T17:28:29;19.30;99.90
48768;DHT22;34933;40.968;14.538;2022-10-16T17:31:19;19.20;99.90
48768;DHT22;34933;40.968;14.538;2022-10-16T17:34:06;19.20;99.90
48768;DHT22;34933;40.968;14.538;2022-10-16T17:36:51;19.10;99.90
48768;DHT22;34933;40.968;14.538;2022-10-16T17:39:36;19.20;99.90
48768;DHT22;34933;40.968;14.538;2022-10-16T17:42:21;19.30;99.90
48768;DHT22;34933;40.968;14.538;2022-10-16T17:45:06;19.20;99.90
48768;DHT22;34933;40.968;14.538;2022-10-16T17:47:52;19.10;99.90
48768;DHT22;34933;40.968;14.538;2022-10-16T17:50:40;19.00;99.90
48768;DHT22;34933;40.968;14.538;2022-10-16T17:53:24;18.90;99.90
48768;DHT22;34933;40.968;14.538;2022-10-16T17:56:11;18.90;99.90
48768;DHT22;34933;40.968;14.538;2022-10-16T17:58:59;18.80;99.90
48768;DHT22;34933;40.968;14.538;2022-10-16T18:01:45;18.70;99.90
48768;DHT22;34933;40.968;14.538;2022-10-16T18:04:30;18.70;99.90
48768;DHT22;34933;40.968;14.538;2022-10-16T18:07:15;18.60;99.90
48768;DHT22;34933;40.968;14.538;2022-10-16T18:09:59;18.50;99.90
48768;DHT22;34933;40.968;14.538;2022-10-16T18:12:46;18.40;99.90
48768;DHT22;34933;40.968;14.538;2022-10-16T18:15:30;18.40;99.90
48768;DHT22;34933;40.968;14.538;2022-10-16T18:18:15;18.30;99.90
48768;DHT22;34933;40.968;14.538;2022-10-16T18:21:01;18.20;99.90
48768;DHT22;34933;40.968;14.538;2022-10-16T18:23:46;18.10;99.90
48768;DHT22;34933;40.968;14.538;2022-10-16T18:26:31;18.10;99.90
48768;DHT22;34933;40.968;14.538;2022-10-16T18:29:16;18.00;99.90
48768;DHT22;34933;40.968;14.538;2022-10-16T18:32:01;18.00;99.90
48768;DHT22;34933;40.968;14.538;2022-10-16T18:34:46;17.90;99.90
48768;DHT22;34933;40.968;14.538;2022-10-16T18:37:30;17.90;99.90
48768;DHT22;34933;40.968;14.538;2022-10-16T18:40:15;17.80;99.90
48768;DHT22;34933;40.968;14.538;2022-10-16T18:43:00;17.80;99.90
48768;DHT22;34933;40.968;14.538;2022-10-16T18:45:57;17.80;99.90
48768;DHT22;34933;40.968;14.538;2022-10-16T18:48:43;17.80;99.90
48768;DHT22;34933;40.968;14.538;2022-10-16T18:51:30;17.80;99.90
48768;DHT22;34933;40.968;14.538;2022-10-16T18:54:15;17.80;99.90
48768;DHT22;34933;40.968;14.538;2022-10-16T18:57:00;17.70;99.90
48768;DHT22;34933;40.968;14.538;2022-10-16T18:59:45;17.70;99.90
48768;DHT22;34933;40.968;14.538;2022-10-16T19:02:29;17.70;99.90
48768;DHT22;34933;40.968;14.538;2022-10-16T19:05:14;17.60;99.90
48768;DHT22;34933;40.968;14.538;2022-10-16T19:07:59;17.60;99.90
48768;DHT22;34933;40.968;14.538;2022-10-16T19:10:44;17.50;99.90
48768;DHT22;34933;40.968;14.538;2022-10-16T19:13:29;17.50;99.90
48768;DHT22;34933;40.968;14.538;2022-10-16T19:16:19;17.40;99.90
48768;DHT22;34933;40.968;14.538;2022-10-16T19:19:09;17.40;99.90